Terminal Aerodrome Forecast
Issued by NWS Charleston, WV

Current Version | Previous Version | Text Only | Print | Product List | Glossary Off
Versions: 1 2 3 4 5 6 7 8 9 10 11 12 13 14 15 16 17 18 19 20 21 22 23 24 25 26

705
FTUS41 KRLX 192320
TAFPKB
TAF
KPKB 192320Z 2000/2024 VRB03KT P6SM SCT180 BKN250
     FM200600 VRB03KT P6SM OVC080
     FM200900 12004KT 4SM -RA OVC030
     FM201100 14005KT 4SM -RA OVC018
     FM201400 19007KT P6SM OVC018
     FM201900 22007KT P6SM BKN025
     FM202200 21005KT P6SM BKN250=

USA.gov is the U.S. government's official web portal to all federal, state and local government web resources and services.